Airfield :
LOGIN :

Register | Disclaimer

   EN    FR    IT 

 










Legend :    VFR   Marginal VFR   IFR   Intensive IFR   Very Intensive IFR
Visi :
Ceiling :
>= 8 km
>= 3000ft
5 to 8 km
1000 to 3000 ft
1500m to 5 km
500 to 1000 ft
800 to 1500m
200 to 500 ft
< 800m
< 200 ft
Symbols :   Thunderstorms  Fog  Heavy snow  Heavy precipitations  Wind > 20 kt
SIGMETs :     Misc.  Thunderstorms  Icing  Turbulence  Mountain Waves  Volcanic Ashes







- Airport Elevation : 1768 ft


LEHC - Huesca Pirineos

CURRENT METAR :
  • 221630Z AUTO 12003KT 010V170 9999 NCD 17/01 Q1026

EXPIRED METARs :
  • 221600Z 16001KT CAVOK 18/01 Q1026
  • 221530Z 08004KT CAVOK 17/00 Q1027
  • 221500Z 10006KT 020V160 CAVOK 18/01 Q1027
  • 221400Z 08004KT 030V150 CAVOK 17/01 Q1027

TAF TAF LEHC
Valid from the 22 at 15:00 until the 23 at 15:00 UTC


221400Z 2215/2315 VRB04KT 9999 FEW030 TX22/2313Z TN06/2306Z
BECMG 2220/2222 06008KT
BECMG 2306/2308 22004KT
No reported NOTAMs for that airfield.



MET'MAP, your aeronautical weather chart ! - Copyright ORBIFLY December 2007 - Disclaimer

ORBIFLY MET'MAP TEAM :

Programming & Development : Alexandra Zaïnal
Concept & Development : Baudouin d'Aumeries
Co-Development & Prog : Marc-Olivier Méhu
Technical & hardware support : Manuel Goepfert

Contact : metmap@orbifly.com




SOURCES & CREDITS :

   NOAA